x

Smith Island, Wa (sisw1) Weather Station

5:00am - Fri 24th Oct 2014 All times are PDT. -7 hours from GMT.

  • Wind
    20mph, 22mph gusts
  • 空気 Temp 50°f
  • Sea Pressure 1016.3mb
  • Smith Island, Wa
  • Smith Island, Wa

More Historic Weather Station data

Upgrade to MSW Pro to gain access to the past 30 days of data for over 8000 Wavebouys and Weather Stations around the globe.

Join Pro

Comparision Forecast

View Surf forecast
   
Fri 10/24 5:00am 20 22 mph 1016.3mb 50f
4:00am 17 20 mph 1016.3mb 50f
3:00am 13 14 mph 1016mb 51f
2:00am 11 13 mph 1015.9mb 51f
1:00am 13 14 mph 1015.6mb 51f
12:00am 15 16 mph 1015.4mb 51f
Thu 10/23 11:00pm 10 13 mph 1015mb 50f
10:00pm 10 11 mph 1014.8mb 50f
9:00pm 11
mph
1014.1mb 49f
8:00pm 7 9 mph 1013.3mb 50f
7:00pm 7
mph
1012.5mb 50f
6:00pm 2 3 mph 1011.7mb 51f
5:00pm 17 20 mph 1011.3mb 51f
4:00pm 5
mph
1010.5mb 55f
3:00pm 3
mph
1009.4mb 53f
2:00pm 6 7 mph 1008.6mb 54f
1:00pm 11 13 mph 1008.5mb 53f
Wed 10/22 10:00am 9 10 mph 1005.1mb 53f
9:00am 18 20 mph 1005mb 54f
8:00am 23 25 mph 1004.1mb 54f
7:00am 26 29 mph 1003.5mb 54f
6:00am 32 38 mph 1003.5mb 54f
5:00am 34 38 mph 1002.2mb 55f
4:00am 39 43 mph 1001.7mb 55f
3:00am 43 51 mph 1001.1mb 55f
2:00am 44 48 mph 1001.4mb 55f
1:00am 48 57 mph 1002mb 56f
12:00am 46 52 mph 1002.7mb 57f
Tue 10/21 11:00pm 45 49 mph 1003.7mb 57f
10:00pm 48 54 mph 1004.7mb 58f
9:00pm 40 45 mph 1005.6mb 57f
8:00pm 43 48 mph 1006.5mb 58f